Terminal Aerodrome Forecast
Issued by NWS

Home | Current Version | Previous Version | Text Only | Print | Product List | Glossary On
Versions: 1 2 3 4 5 6 7 8 9 10 11 12 13 14 15 16 17 18 19 20
000
FTUS43 KLOT 240848 AAA
TAFDPA
TAF AMD
KDPA 240848Z 2409/2506 14003KT P6SM SKC
      TEMPO 2409/2413 4SM BR
     FM241900 15010KT P6SM FEW050
     FM250100 15004KT P6SM SKC=

USA.gov is the U.S. government's official web portal to all federal, state and local government web resources and services.